Time;durP1;ratioP1;P1;durP2;ratioP2;P2;SDS_P1;SDS_P2;PMS_P1;PMS_P2;Temp;Humidity;BMP_temperature;BMP_pressure;BME280_temperature;BME280_humidity;BME280_pressure;Samples;Min_cycle;Max_cycle;Signal;HPM_P1;HPM_P2
2022/08/18 00:01:13;;;;;;;3.50;3.20;;;23.50;99.90;;;;;;5070008;28;20496;-81
2022/08/18 00:03:43;;;;;;;3.50;3.27;;;23.10;99.90;;;;;;5069955;28;20560;-81
2022/08/18 00:06:27;;;;;;;3.60;3.30;;;23.30;99.90;;;;;;5064609;28;20469;-81
2022/08/18 00:08:58;;;;;;;3.23;2.87;;;23.30;99.90;;;;;;5064322;28;20488;-81
2022/08/18 00:11:27;;;;;;;3.37;3.00;;;23.40;99.90;;;;;;5069555;28;20457;-81
2022/08/18 00:14:13;;;;;;;3.77;3.57;;;23.50;99.90;;;;;;5070050;28;20489;-83
2022/08/18 00:16:52;;;;;;;3.57;3.37;;;23.20;99.90;;;;;;5069949;28;20522;-81
2022/08/18 00:19:21;;;;;;;5.00;3.90;;;23.30;99.90;;;;;;5069740;28;21025;-81
2022/08/18 00:22:11;;;;;;;4.67;3.20;;;23.40;99.90;;;;;;5070134;28;20465;-81
2022/08/18 00:24:43;;;;;;;4.33;2.90;;;23.50;99.90;;;;;;5060670;28;20763;-81
2022/08/18 00:27:21;;;;;;;4.07;3.77;;;23.60;99.90;;;;;;5064931;28;20466;-81
2022/08/18 00:29:54;;;;;;;3.73;3.43;;;23.80;99.90;;;;;;5070027;28;20472;-81
2022/08/18 00:32:27;;;;;;;3.70;3.40;;;23.80;99.90;;;;;;5055008;28;20453;-81
2022/08/18 00:34:55;;;;;;;2.90;2.70;;;23.80;99.90;;;;;;5067221;28;20481;-81
2022/08/18 00:37:24;;;;;;;4.27;3.73;;;23.70;99.90;;;;;;5058331;28;20517;-81
2022/08/18 00:39:53;;;;;;;3.67;3.37;;;23.60;99.90;;;;;;5068119;28;21020;-82
2022/08/18 00:42:24;;;;;;;3.50;3.20;;;23.70;99.90;;;;;;5066277;28;20459;-81
2022/08/18 00:45:02;;;;;;;3.33;3.13;;;23.70;99.90;;;;;;5069521;28;20441;-81
2022/08/18 00:47:31;;;;;;;3.70;3.40;;;23.80;99.90;;;;;;5067990;28;20481;-82
2022/08/18 00:50:13;;;;;;;3.43;3.23;;;23.80;99.90;;;;;;5069481;28;20671;-81
2022/08/18 00:52:49;;;;;;;4.10;3.80;;;24.00;99.90;;;;;;5068365;28;20561;-81
2022/08/18 00:55:18;;;;;;;2.80;2.60;;;24.10;99.90;;;;;;5067776;28;20460;-81
2022/08/18 00:57:49;;;;;;;3.30;3.10;;;24.10;99.90;;;;;;5067314;28;20457;-80
2022/08/18 01:00:21;;;;;;;3.40;3.10;;;24.10;99.90;;;;;;5058837;28;20539;-81
2022/08/18 01:02:55;;;;;;;3.40;3.20;;;24.20;99.90;;;;;;5069819;28;20499;-81
2022/08/18 01:05:32;;;;;;;3.33;3.00;;;24.20;99.90;;;;;;5062942;28;20474;-81
2022/08/18 01:08:01;;;;;;;3.53;2.60;;;24.20;99.90;;;;;;5050751;28;20855;-81
2022/08/18 01:10:34;;;;;;;2.90;2.70;;;24.20;99.90;;;;;;5064742;28;20553;-81
2022/08/18 01:13:02;;;;;;;3.53;3.20;;;24.10;99.90;;;;;;5068854;28;20580;-81
2022/08/18 01:15:32;;;;;;;4.83;3.43;;;24.20;99.90;;;;;;5063259;28;20546;-81
2022/08/18 01:23:45;;;;;;;3.30;3.00;;;24.10;99.90;;;;;;5061164;28;20558;-81
2022/08/18 01:26:15;;;;;;;3.43;3.20;;;24.00;99.90;;;;;;5059265;28;20446;-81
2022/08/18 01:28:48;;;;;;;4.40;3.23;;;24.00;99.90;;;;;;5068793;28;20469;-81
2022/08/18 01:31:33;;;;;;;4.00;2.97;;;23.90;99.90;;;;;;5060798;28;20464;-81
2022/08/18 01:34:02;;;;;;;3.50;3.30;;;23.90;99.90;;;;;;5058585;28;20487;-81
2022/08/18 01:36:31;;;;;;;3.40;3.10;;;23.90;99.90;;;;;;5056796;28;20454;-81
2022/08/18 01:39:00;;;;;;;2.67;2.47;;;23.90;99.90;;;;;;5068236;28;20460;-81
2022/08/18 01:41:29;;;;;;;3.53;3.33;;;23.90;99.90;;;;;;5071199;28;20462;-81
2022/08/18 01:43:59;;;;;;;3.50;3.20;;;23.80;99.90;;;;;;5072560;28;20512;-81
2022/08/18 01:46:28;;;;;;;3.67;3.37;;;23.70;99.90;;;;;;5070719;28;20461;-81
2022/08/18 01:49:00;;;;;;;2.80;2.60;;;23.70;99.90;;;;;;5070132;28;20572;-81
2022/08/18 01:51:30;;;;;;;5.83;3.37;;;23.80;99.90;;;;;;5060946;28;20519;-81
2022/08/18 01:54:12;;;;;;;3.00;2.70;;;23.80;99.90;;;;;;5072405;28;20572;-81
2022/08/18 01:56:42;;;;;;;3.60;3.27;;;23.90;99.90;;;;;;5071485;28;20807;-81
2022/08/18 01:59:13;;;;;;;3.73;3.43;;;24.00;99.90;;;;;;5056927;28;20452;-81
2022/08/18 02:01:45;;;;;;;3.87;3.00;;;24.00;99.90;;;;;;5072487;28;20438;-81
2022/08/18 02:04:24;;;;;;;3.47;3.13;;;24.00;99.90;;;;;;5072381;28;20495;-81
2022/08/18 02:07:13;;;;;;;3.80;3.43;;;24.00;99.90;;;;;;5064890;28;20445;-81
2022/08/18 02:09:44;;;;;;;4.67;3.10;;;23.90;99.90;;;;;;5072202;28;20860;-81
2022/08/18 02:12:13;;;;;;;5.00;3.20;;;23.80;99.90;;;;;;5071586;28;20445;-80
2022/08/18 02:14:42;;;;;;;3.50;2.80;;;23.90;99.90;;;;;;5071950;28;20842;-81
2022/08/18 02:17:12;;;;;;;3.53;3.20;;;23.80;99.90;;;;;;5072059;28;21011;-80
2022/08/18 02:19:43;;;;;;;3.63;3.33;;;23.80;99.90;;;;;;5071774;28;20454;-81
2022/08/18 02:22:13;;;;;;;2.80;2.60;;;23.90;99.90;;;;;;5072307;28;20550;-81
2022/08/18 02:24:43;;;;;;;2.97;2.67;;;23.90;99.90;;;;;;5068497;28;20492;-81
2022/08/18 02:27:13;;;;;;;4.30;3.90;;;24.00;99.90;;;;;;5071489;28;21076;-81
2022/08/18 02:29:41;;;;;;;3.20;2.90;;;23.90;99.90;;;;;;5067072;28;20931;-81
2022/08/18 02:32:10;;;;;;;3.60;3.30;;;23.90;99.90;;;;;;5070081;28;20548;-81
2022/08/18 02:34:39;;;;;;;4.37;4.07;;;24.00;99.90;;;;;;5062062;28;20486;-81
2022/08/18 02:37:08;;;;;;;3.20;3.00;;;23.90;99.90;;;;;;5068547;28;20477;-81
2022/08/18 02:39:43;;;;;;;3.00;2.80;;;23.90;99.90;;;;;;5069977;28;20555;-81
2022/08/18 02:42:13;;;;;;;3.03;2.83;;;23.90;99.90;;;;;;5069901;28;20456;-81
2022/08/18 02:44:41;;;;;;;3.80;3.50;;;23.90;99.90;;;;;;5069934;28;20476;-81
2022/08/18 02:47:10;;;;;;;3.70;3.40;;;23.90;99.90;;;;;;5070047;28;20453;-81
2022/08/18 02:49:39;;;;;;;3.63;3.40;;;23.90;99.90;;;;;;5071067;28;20449;-81
2022/08/18 02:52:07;;;;;;;5.53;4.43;;;23.80;99.90;;;;;;5071070;28;20449;-81
2022/08/18 02:54:35;;;;;;;4.77;3.50;;;23.90;99.90;;;;;;5070741;28;20477;-80
2022/08/18 02:57:09;;;;;;;4.47;4.07;;;23.90;99.90;;;;;;5067253;28;20946;-81
2022/08/18 02:59:39;;;;;;;3.93;3.67;;;23.80;99.90;;;;;;5062975;28;20491;-81
2022/08/18 03:02:08;;;;;;;4.37;3.97;;;23.80;99.90;;;;;;5069727;28;20800;-81
2022/08/18 03:04:37;;;;;;;4.40;4.00;;;23.90;99.90;;;;;;5070388;28;20469;-81
2022/08/18 03:07:07;;;;;;;3.60;3.40;;;23.90;99.90;;;;;;5070648;28;20528;-81
2022/08/18 03:09:35;;;;;;;4.33;3.93;;;23.80;99.90;;;;;;5070918;28;20873;-81
2022/08/18 03:12:06;;;;;;;4.53;4.13;;;23.80;99.90;;;;;;5070042;28;20448;-81
2022/08/18 03:14:36;;;;;;;4.07;3.77;;;23.80;99.90;;;;;;5065254;28;20483;-81
2022/08/18 03:17:07;;;;;;;3.97;3.23;;;23.80;99.90;;;;;;5070310;28;20450;-81
2022/08/18 03:19:37;;;;;;;4.97;4.57;;;23.80;99.90;;;;;;5070270;28;20449;-81
2022/08/18 03:22:07;;;;;;;4.67;4.27;;;23.70;99.90;;;;;;5068921;28;20457;-81
2022/08/18 03:24:56;;;;;;;4.20;3.80;;;23.70;99.90;;;;;;5068721;28;20442;-80
2022/08/18 03:27:24;;;;;;;3.93;3.63;;;23.70;99.90;;;;;;5070711;28;20439;-81
2022/08/18 03:29:54;;;;;;;4.23;3.90;;;23.60;99.90;;;;;;5064381;28;20488;-80
2022/08/18 03:32:22;;;;;;;4.13;3.73;;;23.50;99.90;;;;;;5069241;28;20444;-81
2022/08/18 03:34:51;;;;;;;4.13;3.83;;;23.50;99.90;;;;;;5070026;28;20489;-81
2022/08/18 03:37:19;;;;;;;4.30;4.00;;;23.60;99.90;;;;;;5070101;28;20451;-81
2022/08/18 03:39:50;;;;;;;6.40;4.77;;;23.60;99.90;;;;;;5070483;28;20453;-81
2022/08/18 03:42:18;;;;;;;6.20;4.70;;;23.70;99.90;;;;;;5069076;28;20450;-83
2022/08/18 03:44:47;;;;;;;5.13;4.33;;;23.70;99.90;;;;;;5069924;28;20812;-81
2022/08/18 03:47:16;;;;;;;3.33;3.07;;;23.70;99.90;;;;;;5068404;28;20448;-81
2022/08/18 03:49:47;;;;;;;4.87;4.47;;;23.70;99.90;;;;;;5048857;28;20457;-81
2022/08/18 03:52:16;;;;;;;4.23;3.93;;;23.60;99.90;;;;;;5061320;28;20452;-81
2022/08/18 03:54:44;;;;;;;4.33;4.00;;;23.60;99.90;;;;;;5069706;28;21009;-81
2022/08/18 03:57:13;;;;;;;4.37;3.97;;;23.50;99.90;;;;;;5069213;28;20457;-81
2022/08/18 03:59:42;;;;;;;3.73;3.50;;;23.50;99.90;;;;;;5069101;28;20457;-81
2022/08/18 04:02:11;;;;;;;4.50;4.10;;;23.60;99.90;;;;;;5063144;28;20967;-81
2022/08/18 04:04:41;;;;;;;3.83;3.53;;;23.60;99.90;;;;;;5067329;28;20780;-82
2022/08/18 04:07:15;;;;;;;4.63;4.13;;;23.60;99.90;;;;;;5065921;28;20501;-81
2022/08/18 04:09:44;;;;;;;5.57;4.57;;;23.60;99.90;;;;;;5066673;28;20441;-81
2022/08/18 04:12:15;;;;;;;4.93;4.57;;;23.60;99.90;;;;;;5067568;28;20458;-81
2022/08/18 04:14:46;;;;;;;5.20;4.70;;;23.60;99.90;;;;;;5067853;28;20511;-81
2022/08/18 04:17:15;;;;;;;4.80;4.40;;;23.60;99.90;;;;;;5053717;28;21060;-81
2022/08/18 04:19:45;;;;;;;4.87;4.37;;;23.60;99.90;;;;;;5069665;28;20452;-81
2022/08/18 04:22:15;;;;;;;6.03;4.87;;;23.60;99.90;;;;;;5065041;28;20465;-80
2022/08/18 04:24:46;;;;;;;5.57;4.70;;;23.60;99.90;;;;;;5064204;28;20498;-80
2022/08/18 04:27:17;;;;;;;5.17;4.67;;;23.60;99.90;;;;;;5070087;28;20446;-81
2022/08/18 04:29:45;;;;;;;4.67;4.27;;;23.60;99.90;;;;;;5069672;28;20526;-81
2022/08/18 04:32:14;;;;;;;4.67;4.37;;;23.50;99.90;;;;;;5063384;28;20450;-81
2022/08/18 04:34:42;;;;;;;5.13;4.73;;;23.60;99.90;;;;;;5064868;28;21151;-81
2022/08/18 04:37:12;;;;;;;7.60;4.23;;;23.60;99.90;;;;;;5069763;28;20454;-81
2022/08/18 04:39:40;;;;;;;5.30;4.37;;;23.60;99.90;;;;;;5064041;28;20469;-82
2022/08/18 04:42:09;;;;;;;5.10;4.70;;;23.60;99.90;;;;;;5059049;28;20455;-81
2022/08/18 04:44:37;;;;;;;4.53;4.23;;;23.60;99.90;;;;;;5064489;28;20963;-81
2022/08/18 04:47:07;;;;;;;5.23;3.57;;;23.60;99.90;;;;;;5069136;28;20453;-81
2022/08/18 04:49:37;;;;;;;4.10;3.80;;;23.60;99.90;;;;;;5069069;28;20453;-81
2022/08/18 04:55:10;;;;;;;5.03;4.60;;;23.60;99.90;;;;;;5067415;28;20452;-81
2022/08/18 04:57:41;;;;;;;4.60;4.30;;;23.60;99.90;;;;;;5056659;28;20480;-81
2022/08/18 05:00:11;;;;;;;4.20;3.90;;;23.50;99.90;;;;;;5066956;28;20445;-81
2022/08/18 05:02:40;;;;;;;4.70;4.30;;;23.50;99.90;;;;;;5069033;28;20883;-81
2022/08/18 05:05:08;;;;;;;5.40;4.90;;;23.60;99.90;;;;;;5068605;28;20465;-81
2022/08/18 05:07:37;;;;;;;5.33;4.93;;;23.60;99.90;;;;;;5069259;28;20458;-81
2022/08/18 05:10:05;;;;;;;6.00;5.50;;;23.60;99.90;;;;;;5068767;28;20457;-81
2022/08/18 05:12:35;;;;;;;6.03;5.53;;;23.70;99.90;;;;;;5068102;28;20458;-81
2022/08/18 05:15:03;;;;;;;4.83;4.53;;;23.70;99.90;;;;;;5062196;28;20863;-81
2022/08/18 05:17:31;;;;;;;4.40;4.10;;;23.70;99.90;;;;;;5072450;28;20469;-80
2022/08/18 05:20:02;;;;;;;4.17;3.87;;;23.70;99.90;;;;;;5062860;28;20774;-81
2022/08/18 05:22:36;;;;;;;4.20;3.80;;;23.70;99.90;;;;;;5070874;28;20465;-81
2022/08/18 05:25:05;;;;;;;5.20;4.70;;;23.70;99.90;;;;;;5072475;28;20482;-81
2022/08/18 05:27:36;;;;;;;6.13;5.10;;;23.70;99.90;;;;;;5072407;28;20848;-81
2022/08/18 05:30:06;;;;;;;4.63;4.30;;;23.70;99.90;;;;;;5071638;28;20541;-81
2022/08/18 05:32:38;;;;;;;5.50;4.53;;;23.70;99.90;;;;;;5063901;28;20462;-81
2022/08/18 05:35:21;;;;;;;4.97;4.57;;;23.80;99.90;;;;;;5061292;28;20560;-81
2022/08/18 05:38:08;;;;;;;5.40;4.33;;;24.20;99.90;;;;;;5072474;28;20454;-81
2022/08/18 05:40:37;;;;;;;4.77;4.37;;;23.80;99.90;;;;;;5072371;28;20475;-81
2022/08/18 05:43:08;;;;;;;6.37;5.00;;;23.80;99.90;;;;;;5072285;28;20481;-81
2022/08/18 05:45:36;;;;;;;6.57;5.97;;;23.80;99.90;;;;;;5072725;28;20461;-81
2022/08/18 05:48:05;;;;;;;5.33;4.83;;;23.80;99.90;;;;;;5067971;28;20461;-81
2022/08/18 05:50:36;;;;;;;6.43;5.50;;;23.80;99.90;;;;;;5073098;28;20438;-81
2022/08/18 05:53:09;;;;;;;7.10;5.13;;;23.90;99.90;;;;;;5073063;28;20505;-81
2022/08/18 05:58:39;;;;;;;4.97;4.50;;;23.90;99.90;;;;;;5072452;28;20457;-81
2022/08/18 06:01:13;;;;;;;5.80;4.53;;;23.90;99.90;;;;;;5071074;28;20457;-81
2022/08/18 06:03:46;;;;;;;5.03;4.53;;;23.90;99.90;;;;;;5071615;28;20477;-80
2022/08/18 06:06:18;;;;;;;4.93;4.53;;;24.00;99.90;;;;;;5069748;28;20445;-81
2022/08/18 06:08:52;;;;;;;4.97;4.50;;;23.90;99.90;;;;;;5070660;28;20468;-81
2022/08/18 06:11:20;;;;;;;4.87;4.47;;;23.90;99.90;;;;;;5071283;28;20489;-81
2022/08/18 06:13:51;;;;;;;5.83;5.20;;;24.00;99.90;;;;;;5071844;28;20479;-81
2022/08/18 06:16:52;;;;;;;5.70;5.20;;;24.00;99.90;;;;;;5071431;28;20474;-81
2022/08/18 06:19:34;;;;;;;5.47;4.90;;;24.00;99.90;;;;;;5066116;28;20470;-81
2022/08/18 06:22:14;;;;;;;4.53;4.13;;;24.00;99.90;;;;;;5056156;28;20491;-81
2022/08/18 06:24:49;;;;;;;4.47;4.17;;;24.00;99.90;;;;;;5071494;28;20454;-81
2022/08/18 06:27:29;;;;;;;5.50;5.00;;;24.00;99.90;;;;;;5066640;28;20504;-81
2022/08/18 06:30:06;;;;;;;5.07;4.40;;;24.10;99.90;;;;;;5068086;28;20991;-81
2022/08/18 06:32:51;;;;;;;4.77;4.37;;;24.10;99.90;;;;;;5063157;28;20518;-81
2022/08/18 06:35:34;;;;;;;7.63;4.50;;;24.00;99.90;;;;;;5069101;28;20483;-81
2022/08/18 06:38:38;;;;;;;5.70;5.03;;;24.10;99.90;;;;;;5070726;28;20479;-81
2022/08/18 06:41:13;;;;;;;7.00;4.70;;;24.10;99.90;;;;;;5071832;28;20466;-80
2022/08/18 06:44:07;;;;;;;5.37;4.37;;;24.60;99.90;;;;;;5071562;28;20551;-81
2022/08/18 06:46:45;;;;;;;4.97;4.57;;;24.20;99.90;;;;;;5071950;28;20454;-81
2022/08/18 06:49:20;;;;;;;4.63;4.23;;;24.30;99.90;;;;;;5063989;28;20451;-81
2022/08/18 06:51:48;;;;;;;6.47;5.97;;;24.30;99.90;;;;;;5082429;28;21198;-81
2022/08/18 06:54:42;;;;;;;3.97;3.67;;;24.30;99.90;;;;;;5068460;28;20511;-81
2022/08/18 06:57:28;;;;;;;4.20;3.90;;;24.30;99.90;;;;;;5071331;28;20470;-80
2022/08/18 06:59:59;;;;;;;4.20;3.90;;;24.30;99.90;;;;;;5057452;28;20443;-81
2022/08/18 07:02:50;;;;;;;4.60;4.20;;;24.40;99.90;;;;;;5071160;28;20945;-80
2022/08/18 07:05:22;;;;;;;4.37;3.90;;;24.40;99.90;;;;;;5069215;28;20454;-81
2022/08/18 07:08:06;;;;;;;4.63;4.20;;;24.40;99.90;;;;;;5071012;28;20457;-81
2022/08/18 07:10:36;;;;;;;4.13;3.90;;;24.50;99.90;;;;;;5064572;28;20450;-81
2022/08/18 07:13:25;;;;;;;5.00;4.50;;;24.40;99.90;;;;;;5060559;28;20894;-81
2022/08/18 07:16:14;;;;;;;4.23;3.93;;;24.50;99.90;;;;;;5070985;28;20894;-81
2022/08/18 07:18:47;;;;;;;4.00;3.70;;;24.40;99.90;;;;;;5070689;28;20442;-81
2022/08/18 07:21:26;;;;;;;4.23;3.83;;;24.40;99.90;;;;;;5070300;28;20459;-81
2022/08/18 07:24:04;;;;;;;4.37;4.07;;;24.50;99.90;;;;;;5070040;28;20470;-81
2022/08/18 07:27:00;;;;;;;4.20;3.90;;;24.50;99.90;;;;;;5083877;28;20450;-81
2022/08/18 07:29:33;;;;;;;5.10;4.10;;;24.50;99.90;;;;;;5051308;28;20439;-81
2022/08/18 07:32:04;;;;;;;4.60;4.20;;;24.40;99.90;;;;;;5060855;28;20471;-80
2022/08/18 07:34:39;;;;;;;4.83;4.43;;;24.50;99.90;;;;;;5070722;28;20482;-81
2022/08/18 07:37:14;;;;;;;5.03;4.50;;;24.40;99.90;;;;;;5069556;28;21050;-81
2022/08/18 07:39:49;;;;;;;5.20;4.80;;;24.40;99.90;;;;;;5070162;28;20815;-81
2022/08/18 07:42:30;;;;;;;5.50;5.10;;;24.40;99.90;;;;;;5070106;28;20453;-81
2022/08/18 07:45:23;;;;;;;4.23;3.83;;;24.40;99.90;;;;;;5069865;28;21205;-81
2022/08/18 07:47:57;;;;;;;5.30;4.80;;;24.50;99.90;;;;;;5063000;28;20452;-81
2022/08/18 07:50:54;;;;;;;4.30;4.00;;;24.40;99.90;;;;;;5069854;28;20525;-80
2022/08/18 07:53:37;;;;;;;4.40;4.10;;;24.50;99.90;;;;;;5069746;28;20467;-81
2022/08/18 07:56:17;;;;;;;6.63;4.37;;;24.50;99.90;;;;;;5069118;28;20454;-80
2022/08/18 07:58:54;;;;;;;7.93;5.20;;;24.50;99.90;;;;;;5058677;28;20475;-81
2022/08/18 08:01:31;;;;;;;4.00;3.70;;;24.50;99.90;;;;;;5065007;28;20808;-81
2022/08/18 08:04:11;;;;;;;5.43;4.73;;;24.50;99.90;;;;;;5067492;28;20997;-81
2022/08/18 08:07:01;;;;;;;4.70;4.20;;;24.50;99.90;;;;;;5069355;28;20550;-81
2022/08/18 08:10:00;;;;;;;4.27;3.90;;;24.50;99.90;;;;;;5069541;28;20466;-81
2022/08/18 08:12:36;;;;;;;5.10;4.70;;;25.00;99.90;;;;;;5069091;28;20462;-81
2022/08/18 08:15:16;;;;;;;5.03;4.13;;;24.50;99.90;;;;;;5069025;28;20481;-81
2022/08/18 08:17:55;;;;;;;4.97;4.53;;;24.50;99.90;;;;;;5068752;28;20985;-81
2022/08/18 08:20:31;;;;;;;5.30;4.90;;;24.50;99.90;;;;;;5063309;28;20454;-81
2022/08/18 08:23:16;;;;;;;4.60;4.20;;;24.60;99.90;;;;;;5066281;28;20564;-81
2022/08/18 08:25:58;;;;;;;4.60;4.20;;;24.60;99.90;;;;;;5061201;28;20450;-81
2022/08/18 08:28:40;;;;;;;5.47;4.97;;;24.60;99.90;;;;;;5068665;28;20932;-81
2022/08/18 08:31:11;;;;;;;4.30;4.00;;;24.70;99.90;;;;;;5069059;28;20470;-81
2022/08/18 08:34:09;;;;;;;3.70;3.50;;;24.70;99.90;;;;;;5058122;28;20471;-81
2022/08/18 08:36:40;;;;;;;4.73;4.33;;;24.70;99.90;;;;;;5068968;28;20454;-81
2022/08/18 08:39:16;;;;;;;4.67;4.27;;;24.70;99.90;;;;;;5061636;28;21016;-80
2022/08/18 08:41:51;;;;;;;4.80;4.37;;;24.70;99.90;;;;;;5055527;28;20461;-81
2022/08/18 08:44:30;;;;;;;4.80;4.50;;;24.70;99.90;;;;;;5068841;28;20462;-80
2022/08/18 08:47:04;;;;;;;4.67;4.10;;;24.80;99.90;;;;;;5069204;28;20516;-81
2022/08/18 08:49:38;;;;;;;5.83;5.33;;;24.80;99.90;;;;;;5074998;28;20465;-81
2022/08/18 08:52:24;;;;;;;4.50;4.10;;;24.80;99.90;;;;;;5075712;28;20455;-81
2022/08/18 08:54:56;;;;;;;6.47;4.43;;;24.80;99.90;;;;;;5071685;28;20450;-81
2022/08/18 08:57:32;;;;;;;5.00;4.70;;;24.80;99.90;;;;;;5075043;28;20470;-81
2022/08/18 09:00:05;;;;;;;5.90;5.30;;;24.90;99.90;;;;;;5075144;28;20461;-81
2022/08/18 09:02:50;;;;;;;5.40;4.60;;;24.90;99.90;;;;;;5075874;28;20450;-80
2022/08/18 09:05:23;;;;;;;5.57;5.20;;;25.00;99.90;;;;;;5075421;28;20450;-81
2022/08/18 09:08:15;;;;;;;4.43;4.07;;;25.00;99.90;;;;;;5074050;28;20462;-81
2022/08/18 09:11:26;;;;;;;4.77;4.10;;;25.10;99.90;;;;;;5051653;28;20466;-81
2022/08/18 09:14:21;;;;;;;4.70;4.30;;;25.20;99.90;;;;;;5059687;28;20474;-81
2022/08/18 09:17:06;;;;;;;5.50;5.10;;;25.20;99.90;;;;;;5075259;28;20511;-81
2022/08/18 09:20:01;;;;;;;4.23;3.83;;;25.30;99.90;;;;;;5074918;28;20507;-81
2022/08/18 09:22:38;;;;;;;4.93;4.63;;;25.50;99.90;;;;;;5075217;28;20516;-80
2022/08/18 09:25:11;;;;;;;6.53;5.07;;;25.60;99.90;;;;;;5074880;28;20453;-81
2022/08/18 09:27:43;;;;;;;5.17;4.70;;;25.60;99.90;;;;;;5074598;28;20458;-81
2022/08/18 09:30:46;;;;;;;4.97;4.27;;;25.60;99.90;;;;;;5068232;28;20454;-81
2022/08/18 09:33:35;;;;;;;5.50;5.00;;;25.70;99.90;;;;;;5069976;28;20541;-81
2022/08/18 09:36:28;;;;;;;4.90;4.50;;;25.70;99.90;;;;;;5074563;28;20450;-81
2022/08/18 09:41:58;;;;;;;4.60;4.20;;;25.80;99.90;;;;;;5074491;28;20469;-81
2022/08/18 09:45:03;;;;;;;5.53;4.90;;;25.80;99.90;;;;;;5073190;28;20485;-81
2022/08/18 09:48:01;;;;;;;5.37;4.97;;;25.90;99.90;;;;;;5073821;28;20466;-81
2022/08/18 09:50:53;;;;;;;5.23;4.83;;;26.10;99.90;;;;;;5074632;28;20474;-81
2022/08/18 09:54:19;;;;;;;5.13;4.83;;;26.10;99.90;;;;;;5074889;28;20482;-81
2022/08/18 09:57:16;;;;;;;5.37;4.97;;;26.10;99.90;;;;;;5066225;28;20455;-81
2022/08/18 10:00:13;;;;;;;5.10;4.70;;;26.10;99.90;;;;;;5072118;28;20577;-81
2022/08/18 10:03:27;;;;;;;5.87;5.00;;;26.00;99.90;;;;;;5062943;28;21038;-80
2022/08/18 10:06:14;;;;;;;5.10;4.73;;;26.00;99.90;;;;;;5060271;28;20462;-81
2022/08/18 10:09:12;;;;;;;4.30;4.00;;;26.00;99.90;;;;;;5071942;28;20446;-81
2022/08/18 10:12:00;;;;;;;4.30;3.70;;;26.10;99.90;;;;;;5056975;28;20451;-81
2022/08/18 10:14:50;;;;;;;6.43;5.83;;;26.10;99.90;;;;;;5065733;28;20478;-81
2022/08/18 10:17:43;;;;;;;5.53;5.13;;;26.10;99.90;;;;;;5054991;28;20459;-81
2022/08/18 10:20:27;;;;;;;4.73;4.40;;;26.10;99.90;;;;;;5062279;28;20479;-81
2022/08/18 10:22:57;;;;;;;5.90;5.50;;;26.10;99.90;;;;;;5072078;28;20481;-80
2022/08/18 10:25:37;;;;;;;4.93;4.63;;;26.20;99.90;;;;;;5069567;28;20458;-80
2022/08/18 10:28:08;;;;;;;5.17;4.77;;;26.30;99.90;;;;;;5071808;28;20443;-81
2022/08/18 10:30:59;;;;;;;5.03;4.63;;;26.30;99.90;;;;;;5072641;28;21016;-81
2022/08/18 10:34:02;;;;;;;5.80;5.37;;;26.30;99.90;;;;;;5059920;28;20474;-81
2022/08/18 10:36:52;;;;;;;4.80;4.40;;;26.40;99.90;;;;;;5064863;28;20469;-81
2022/08/18 10:39:27;;;;;;;5.10;4.80;;;26.40;99.90;;;;;;5071587;28;20521;-81
2022/08/18 10:42:10;;;;;;;5.53;5.03;;;26.40;99.90;;;;;;5071699;28;20474;-80
2022/08/18 10:44:45;;;;;;;5.07;4.57;;;26.40;99.90;;;;;;5069872;28;20478;-80
2022/08/18 10:47:22;;;;;;;5.63;5.23;;;26.40;99.90;;;;;;5071469;28;20485;-81
2022/08/18 10:49:53;;;;;;;6.40;5.80;;;26.40;99.90;;;;;;5071991;28;20476;-81
2022/08/18 10:52:37;;;;;;;6.37;5.90;;;26.40;99.90;;;;;;5072661;28;20461;-81
2022/08/18 10:55:41;;;;;;;5.90;5.40;;;26.40;99.90;;;;;;5060012;28;20524;-81
2022/08/18 10:58:44;;;;;;;6.00;5.53;;;26.40;99.90;;;;;;5068893;28;20470;-81
2022/08/18 11:01:23;;;;;;;7.33;6.23;;;26.40;99.90;;;;;;5070272;28;20469;-81
2022/08/18 11:04:07;;;;;;;6.70;6.10;;;26.40;99.90;;;;;;5058416;28;20463;-81
2022/08/18 11:06:52;;;;;;;6.30;5.80;;;26.40;99.90;;;;;;5070528;28;20477;-81
2022/08/18 11:09:26;;;;;;;6.27;5.73;;;26.40;99.90;;;;;;5070625;28;20958;-82
2022/08/18 11:11:58;;;;;;;7.23;5.97;;;26.50;99.90;;;;;;5067898;28;20912;-81
2022/08/18 11:15:07;;;;;;;5.80;5.37;;;26.50;99.90;;;;;;5070605;28;20466;-81
2022/08/18 11:18:08;;;;;;;6.20;5.73;;;26.50;99.90;;;;;;5070205;28;20458;-82
2022/08/18 11:20:38;;;;;;;5.50;5.07;;;26.40;99.90;;;;;;5070064;28;20451;-81
2022/08/18 11:23:26;;;;;;;6.33;5.73;;;26.50;99.90;;;;;;5069580;28;20469;-81
2022/08/18 11:25:54;;;;;;;5.20;4.80;;;26.50;99.90;;;;;;5056411;28;20448;-81
2022/08/18 11:28:29;;;;;;;6.30;5.83;;;26.50;99.90;;;;;;5063911;28;20458;-81
2022/08/18 11:30:59;;;;;;;7.10;5.77;;;26.50;99.90;;;;;;5070007;28;20451;-81
2022/08/18 11:33:28;;;;;;;5.73;5.23;;;26.50;99.90;;;;;;5063461;28;20478;-81
2022/08/18 11:36:00;;;;;;;6.00;5.43;;;26.50;99.90;;;;;;5069529;28;20462;-81
2022/08/18 11:38:30;;;;;;;6.50;5.93;;;26.50;99.90;;;;;;5069488;28;20458;-81
2022/08/18 11:41:14;;;;;;;5.70;5.30;;;26.60;99.90;;;;;;5070015;28;20482;-81
2022/08/18 11:43:47;;;;;;;6.43;5.83;;;26.60;99.90;;;;;;5069056;28;20486;-81
2022/08/18 11:46:27;;;;;;;6.30;5.73;;;26.60;99.90;;;;;;5056232;28;20494;-81
2022/08/18 11:49:00;;;;;;;5.37;5.07;;;26.60;99.90;;;;;;5069424;28;20475;-80
2022/08/18 11:51:31;;;;;;;6.10;5.23;;;26.70;99.90;;;;;;5069525;28;20451;-81
2022/08/18 11:54:01;;;;;;;6.33;5.93;;;26.70;99.90;;;;;;5069392;28;20862;-80
2022/08/18 11:56:31;;;;;;;5.30;5.00;;;26.70;99.90;;;;;;5069752;28;20447;-81
2022/08/18 11:59:34;;;;;;;5.70;5.30;;;26.70;99.90;;;;;;5068864;28;20492;-81
2022/08/18 12:02:25;;;;;;;6.67;6.10;;;26.70;99.90;;;;;;5058953;28;21156;-82
2022/08/18 12:04:59;;;;;;;6.83;6.33;;;26.70;99.90;;;;;;5069287;28;21075;-81
2022/08/18 12:07:36;;;;;;;6.20;5.70;;;26.70;99.90;;;;;;5069073;28;20457;-81
2022/08/18 12:10:18;;;;;;;5.37;4.87;;;26.80;99.90;;;;;;5067420;28;20508;-80
2022/08/18 12:13:06;;;;;;;6.53;6.00;;;26.70;99.90;;;;;;5068747;28;20478;-81
2022/08/18 12:15:37;;;;;;;7.00;6.50;;;26.70;99.90;;;;;;5068529;28;21069;-81
2022/08/18 12:18:13;;;;;;;6.80;6.07;;;26.80;99.90;;;;;;5064261;28;20453;-81
2022/08/18 12:21:02;;;;;;;6.63;5.80;;;26.20;99.90;;;;;;5067915;28;21247;-81
2022/08/18 12:23:31;;;;;;;7.33;6.50;;;26.80;99.90;;;;;;5065391;28;20476;-81
2022/08/18 12:26:16;;;;;;;6.67;6.07;;;26.90;99.90;;;;;;5065440;28;21029;-81
2022/08/18 12:29:04;;;;;;;6.60;6.07;;;26.90;99.90;;;;;;5068012;28;20547;-81
2022/08/18 12:31:39;;;;;;;6.40;6.00;;;26.90;99.90;;;;;;5068053;28;21145;-81
2022/08/18 12:34:15;;;;;;;6.27;5.77;;;26.90;99.90;;;;;;5062921;28;20553;-81
2022/08/18 12:36:45;;;;;;;6.87;6.27;;;26.90;99.90;;;;;;5059185;28;20474;-81
2022/08/18 12:39:13;;;;;;;6.43;5.93;;;26.90;99.90;;;;;;5068857;28;20482;-81
2022/08/18 12:41:41;;;;;;;6.17;5.63;;;27.00;99.90;;;;;;5069092;28;20469;-81
2022/08/18 12:44:10;;;;;;;6.40;5.90;;;27.00;99.90;;;;;;5069275;28;20466;-81
2022/08/18 12:46:42;;;;;;;5.93;5.43;;;27.00;99.90;;;;;;5069143;28;20462;-81
2022/08/18 12:49:16;;;;;;;6.00;5.50;;;27.10;99.90;;;;;;5069390;28;20537;-81
2022/08/18 12:51:44;;;;;;;5.70;5.30;;;27.00;99.90;;;;;;5068679;28;20461;-81
2022/08/18 12:54:17;;;;;;;7.43;6.83;;;27.10;99.90;;;;;;5064185;28;20493;-81
2022/08/18 12:56:50;;;;;;;4.90;4.60;;;27.10;99.90;;;;;;5068404;28;20469;-81
2022/08/18 12:59:18;;;;;;;6.57;5.93;;;27.10;99.90;;;;;;5068429;28;20469;-81
2022/08/18 13:01:48;;;;;;;5.77;5.37;;;27.20;99.90;;;;;;5068042;28;20458;-81
2022/08/18 13:04:17;;;;;;;5.37;4.97;;;27.30;99.90;;;;;;5068497;28;20508;-81
2022/08/18 13:06:47;;;;;;;5.10;4.80;;;27.30;99.90;;;;;;5068596;28;20450;-81
2022/08/18 13:09:29;;;;;;;5.17;4.67;;;27.30;99.90;;;;;;5062532;28;20451;-81
2022/08/18 13:12:10;;;;;;;5.60;5.10;;;27.30;99.90;;;;;;5066379;28;20497;-81
2022/08/18 13:14:43;;;;;;;6.40;5.90;;;27.40;99.90;;;;;;5067966;28;20471;-81
2022/08/18 13:17:14;;;;;;;6.07;5.53;;;27.40;99.90;;;;;;5068184;28;20531;-81
2022/08/18 13:20:02;;;;;;;5.17;4.80;;;27.50;99.90;;;;;;5068838;28;20510;-81
2022/08/18 13:22:31;;;;;;;5.80;5.40;;;27.50;99.90;;;;;;5068727;28;20461;-81
2022/08/18 13:25:01;;;;;;;5.63;5.23;;;27.50;99.90;;;;;;5068690;28;20454;-81
2022/08/18 13:27:32;;;;;;;5.40;4.90;;;27.50;99.90;;;;;;5059388;28;20493;-81
2022/08/18 13:30:08;;;;;;;5.43;4.20;;;27.50;99.90;;;;;;5067971;28;20442;-81
2022/08/18 13:32:57;;;;;;;5.37;4.97;;;27.50;99.90;;;;;;5066464;28;20459;-81
2022/08/18 13:35:33;;;;;;;6.23;5.63;;;27.60;99.90;;;;;;5069873;28;21051;-81
2022/08/18 13:38:12;;;;;;;5.60;5.10;;;27.50;99.90;;;;;;5072163;28;20529;-81
2022/08/18 13:40:49;;;;;;;6.00;5.50;;;27.60;99.90;;;;;;5071913;28;21159;-81
2022/08/18 13:43:19;;;;;;;5.97;5.47;;;27.60;99.90;;;;;;5068226;28;20508;-81
2022/08/18 13:45:50;;;;;;;5.00;4.70;;;27.60;99.90;;;;;;5072546;28;20454;-81
2022/08/18 13:48:24;;;;;;;5.50;5.10;;;27.60;99.90;;;;;;5071861;28;21096;-81
2022/08/18 13:50:54;;;;;;;5.20;4.80;;;27.60;99.90;;;;;;5071580;28;20637;-81